Basalt, CO (81621)

10:18 PM MST on March 01, 2015 (GMT -0700)
Capitol Creek Valley | Change Station
CLOSE
Current Station
Personal Weather Station
Location: Snowmass, CO
Elevation: 7441 ft
Nearby Weather Stations
Active Advisory: Winter Storm Warning Active Notice: Local Storm Report

Elev 7441 ft 39.29 °N, 107.01 °W | Updated 2 seconds ago

Light Snow
Light Snow Mist
28.8 °F
Feels Like 29 °F
N
0.0
Wind Variable Wind from NE
Gusts 0.0 mph

Today
High -- | Low -- °F
--% Chance of Precip.
Yesterday
High -- | Low -- °F
Precip. -- in
6:41 AM 6:00 PM
Waxing Gibbous, 89% visible
Pressure 30.04 in
Visibility 2.0 miles
Clouds Overcast 600 ft
Windchill 29 °F
Dew Point 25 °F
Humidity 84%
Rainfall 0.15 in
Snow Depth Not available.
UV 0 out of 12
Pollen 1.80 out of 12
Air Quality Not available.
Flu Activity Not available.
SPECI KASE 020510Z 33005KT 2SM -SN BR OVC006 M02/M03 A3004 RMK AO2 P0001 T10171028

More Conditions Fewer Conditions

Pressure 30.04 in
Visibility 2.0 miles
Clouds Overcast 600 ft
Windchill 29 °F
Dew Point 25 °F
Humidity 84%
Rainfall 0.15 in
Snow Depth Not available.
UV 0 out of 12
Pollen 1.80 out of 12
Air Quality Not available.
Flu Activity Not available.
SPECI KASE 020510Z 33005KT 2SM -SN BR OVC006 M02/M03 A3004 RMK AO2 P0001 T10171028

More Conditions Fewer Conditions

10-Day Weather Forecast

Almanac

Astronomy

Mar. 01, 2015 Rise Set
Actual Time
Civil Twilight
Nautical Twilight
Astronomical Twilight
Moon
Length of Visible Light
Length of Day
Tomorrow will be .
, % of the Moon is Illuminated

Today's Extremes

State Highs State Lows

Community

WunderPhotos

Upload Photos

1,801,729 photos uploaded!

WunderBlogs® & News

Nearby

Air Quality

  Air Quality AQ Index Pollutant
Not available.

Snow Depth

Station Depth Elevation

Earthquake Activity

City Distance Mag. Time & Date
Minimum magnitude displayed is 2.5.

Coastal Water Temperatures

Place Temperature

Nearby Weather Stations

Winter Storm Warning
Statement as of 6:37 PM MST on March 01, 2015

... Winter Storm Warning remains in effect until 5 PM MST Tuesday
above 7000 feet...

* locations include the cities of... Aspen... Vail... Ridgway.

* Timing... periods of snow will continue through Monday evening
... though there will be lulls in activity. The best periods for
significant snowfall will be tonight through Monday evening.

* Snow accumulation... 1 to 2 feet through Tuesday afternoon with
the highest amounts expected along southwest facing slopes.

* Winds... southwest 15 to 25 mph with gusts up to 40 mph.

* Visibility... restricted at times in snow and blowing snow.

* Impacts... travel is expected to become difficult or impossible
through Wednesday.

Precautionary/preparedness actions...

A Winter Storm Warning means significant amounts of snow are
expected or occurring. Strong winds and blowing snow are also
possible. This will make travel very hazardous or impossible.